createdAt,value
2023-02-19T00:00:59.426Z,8.53
2023-02-19T00:03:27.287Z,8.25
2023-02-19T00:05:54.605Z,8.36
2023-02-19T00:08:22.042Z,8.66
2023-02-19T00:10:49.364Z,8.62
2023-02-19T00:13:16.883Z,8.66
2023-02-19T00:15:44.158Z,8.35
2023-02-19T00:18:11.549Z,8.33
2023-02-19T00:20:38.839Z,8.26
2023-02-19T00:23:06.145Z,8.32
2023-02-19T00:25:36.973Z,8.22
2023-02-19T00:28:04.735Z,8.32
2023-02-19T00:30:32.068Z,8.16
2023-02-19T00:32:59.482Z,8.11
2023-02-19T00:35:26.758Z,8.24
2023-02-19T00:37:54.080Z,8.29
2023-02-19T00:40:21.408Z,8.53
2023-02-19T00:42:48.709Z,8.48
2023-02-19T00:45:16.872Z,8.54
2023-02-19T00:47:44.217Z,8.36
2023-02-19T00:50:11.626Z,8.24
2023-02-19T00:52:38.992Z,8.39
2023-02-19T00:55:06.503Z,8.48
2023-02-19T00:57:33.859Z,8.38
2023-02-19T01:00:01.232Z,8.43
2023-02-19T01:02:28.569Z,8.38
2023-02-19T01:04:56.097Z,8.25
2023-02-19T01:07:23.494Z,8.24
2023-02-19T01:09:51.947Z,8.26
2023-02-19T01:12:19.322Z,8.31
2023-02-19T01:14:46.997Z,8.35
2023-02-19T01:17:14.343Z,8.48
2023-02-19T01:19:41.688Z,8.50
2023-02-19T01:22:09.180Z,8.53
2023-02-19T01:24:36.415Z,8.46
2023-02-19T01:27:03.909Z,8.53
2023-02-19T01:29:31.220Z,8.42
2023-02-19T01:31:58.634Z,8.28
2023-02-19T01:34:27.149Z,8.48
2023-02-19T01:36:54.547Z,8.39
2023-02-19T01:39:22.750Z,8.70
2023-02-19T01:41:50.208Z,8.52
2023-02-19T01:44:18.518Z,8.28
2023-02-19T01:46:51.606Z,8.22
2023-02-19T01:49:38.906Z,8.29
2023-02-19T01:52:22.121Z,8.56
2023-02-19T01:54:49.623Z,8.73
2023-02-19T01:57:19.252Z,8.81
2023-02-19T01:59:47.833Z,8.88
2023-02-19T02:02:15.357Z,8.77
2023-02-19T02:04:42.859Z,8.76
2023-02-19T02:07:28.730Z,8.83
2023-02-19T02:10:22.220Z,8.79
2023-02-19T02:12:50.243Z,8.87
2023-02-19T02:15:17.674Z,8.79
2023-02-19T02:17:57.580Z,8.94
2023-02-19T02:20:40.199Z,8.77
2023-02-19T02:23:24.689Z,8.59
2023-02-19T02:26:20.369Z,8.43
2023-02-19T02:28:47.779Z,8.39
2023-02-19T02:31:17.815Z,8.43
2023-02-19T02:33:51.916Z,8.43
2023-02-19T02:36:22.343Z,8.49
2023-02-19T02:38:50.037Z,8.36
2023-02-19T02:41:21.270Z,8.26
2023-02-19T02:43:48.712Z,8.26
2023-02-19T02:46:34.283Z,7.99
2023-02-19T02:49:20.822Z,7.85
2023-02-19T02:51:51.325Z,7.95
2023-02-19T02:54:51.221Z,8.02
2023-02-19T02:57:20.897Z,7.98
2023-02-19T02:59:55.038Z,8.05
2023-02-19T03:02:25.787Z,8.04
2023-02-19T03:05:38.333Z,8.08
2023-02-19T03:08:10.154Z,7.85
2023-02-19T03:10:45.988Z,7.80
2023-02-19T03:13:54.054Z,7.59
2023-02-19T03:16:43.709Z,7.30
2023-02-19T03:19:19.145Z,7.44
2023-02-19T03:21:50.292Z,7.37
2023-02-19T03:24:36.044Z,7.30
2023-02-19T03:27:03.474Z,7.26
2023-02-19T03:29:36.729Z,7.30
2023-02-19T03:32:19.168Z,7.37
2023-02-19T03:35:14.103Z,7.19
2023-02-19T03:37:47.207Z,7.34
2023-02-19T03:40:15.531Z,7.32
2023-02-19T03:43:01.573Z,7.32
2023-02-19T03:45:55.934Z,7.49
2023-02-19T03:48:35.581Z,7.36
2023-02-19T03:51:32.569Z,7.09
2023-02-19T03:54:31.610Z,7.04
2023-02-19T03:57:02.166Z,6.99
2023-02-19T03:59:35.748Z,6.96
2023-02-19T04:02:14.200Z,7.08
2023-02-19T04:04:45.151Z,7.18
2023-02-19T04:07:12.778Z,7.25
2023-02-19T04:09:43.684Z,7.18
2023-02-19T04:12:14.804Z,7.15
2023-02-19T04:14:52.558Z,7.18
2023-02-19T04:17:31.564Z,7.29
2023-02-19T04:19:58.936Z,7.25
2023-02-19T04:22:26.212Z,7.19
2023-02-19T04:24:53.652Z,7.34
2023-02-19T04:27:21.003Z,6.99
2023-02-19T04:29:48.364Z,7.09
2023-02-19T04:32:15.606Z,7.04
2023-02-19T04:34:42.925Z,6.96
2023-02-19T04:37:10.262Z,7.06
2023-02-19T04:39:37.694Z,7.15
2023-02-19T04:42:05.013Z,7.08
2023-02-19T04:44:33.541Z,7.06
2023-02-19T04:47:01.005Z,7.08
2023-02-19T04:49:28.285Z,7.09
2023-02-19T04:51:55.522Z,7.12
2023-02-19T04:54:22.891Z,7.15
2023-02-19T04:56:50.956Z,6.99
2023-02-19T04:59:18.344Z,6.85
2023-02-19T05:01:45.590Z,6.84
2023-02-19T05:04:13.032Z,6.95
2023-02-19T05:06:40.251Z,7.06
2023-02-19T05:09:07.593Z,7.06
2023-02-19T05:11:34.881Z,7.12
2023-02-19T05:14:02.220Z,7.12
2023-02-19T05:16:29.523Z,7.19
2023-02-19T05:18:56.845Z,7.39
2023-02-19T05:21:24.166Z,7.15
2023-02-19T05:23:51.609Z,6.99
2023-02-19T05:26:20.598Z,7.22
2023-02-19T05:28:49.390Z,7.27
2023-02-19T05:31:16.840Z,7.06
2023-02-19T05:33:45.883Z,7.12
2023-02-19T05:36:13.522Z,7.08
2023-02-19T05:38:41.255Z,7.08
2023-02-19T05:41:18.552Z,7.11
2023-02-19T05:43:46.593Z,7.06
2023-02-19T05:46:15.834Z,7.08
2023-02-19T05:48:43.302Z,7.01
2023-02-19T05:51:12.970Z,6.85
2023-02-19T05:53:40.757Z,6.75
2023-02-19T05:56:26.350Z,6.98
2023-02-19T05:58:54.160Z,6.80
2023-02-19T06:01:22.625Z,6.92
2023-02-19T06:03:50.068Z,6.78
2023-02-19T06:06:18.292Z,6.83
2023-02-19T06:08:45.626Z,6.77
2023-02-19T06:11:13.075Z,6.88
2023-02-19T06:13:40.415Z,6.98
2023-02-19T06:16:07.976Z,6.91
2023-02-19T06:18:35.468Z,6.80
2023-02-19T06:21:06.702Z,6.68
2023-02-19T06:23:34.159Z,6.65
2023-02-19T06:26:09.378Z,6.65
2023-02-19T06:28:37.304Z,6.77
2023-02-19T06:31:05.409Z,6.78
2023-02-19T06:33:32.929Z,6.70
2023-02-19T06:36:01.408Z,6.71
2023-02-19T06:38:28.837Z,6.81
2023-02-19T06:40:56.215Z,6.75
2023-02-19T06:43:23.545Z,6.65
2023-02-19T06:45:50.796Z,6.70
2023-02-19T06:48:18.208Z,6.75
2023-02-19T06:50:45.470Z,6.73
2023-02-19T06:53:12.887Z,6.73
2023-02-19T06:55:40.595Z,6.91
2023-02-19T06:58:08.079Z,6.94
2023-02-19T07:00:35.373Z,6.96
2023-02-19T07:03:05.400Z,7.02
2023-02-19T07:05:32.907Z,7.06
2023-02-19T07:08:00.178Z,7.25
2023-02-19T07:10:27.508Z,7.12
2023-02-19T07:12:54.740Z,7.15
2023-02-19T07:15:22.088Z,7.16
2023-02-19T07:17:49.370Z,7.22
2023-02-19T07:20:16.705Z,7.20
2023-02-19T07:22:44.028Z,7.36
2023-02-19T07:25:11.401Z,7.36
2023-02-19T07:27:38.708Z,7.36
2023-02-19T07:30:06.362Z,7.52
2023-02-19T07:32:33.627Z,7.49
2023-02-19T07:35:00.943Z,7.52
2023-02-19T07:37:28.197Z,7.50
2023-02-19T07:39:55.522Z,7.54
2023-02-19T07:42:22.776Z,7.47
2023-02-19T07:44:50.326Z,7.56
2023-02-19T07:47:17.632Z,7.56
2023-02-19T07:49:44.955Z,7.54
2023-02-19T07:52:12.378Z,7.83
2023-02-19T07:54:39.799Z,7.77
2023-02-19T07:57:07.055Z,8.05
2023-02-19T07:59:34.980Z,8.20
2023-02-19T08:02:21.133Z,8.08
2023-02-19T08:04:48.690Z,8.32
2023-02-19T08:07:15.959Z,8.36
2023-02-19T08:09:43.277Z,8.46
2023-02-19T08:12:29.833Z,8.49
2023-02-19T08:14:57.994Z,8.56
2023-02-19T08:17:25.332Z,8.33
2023-02-19T08:19:52.819Z,8.38
2023-02-19T08:22:20.067Z,8.42
2023-02-19T08:24:47.416Z,8.67
2023-02-19T08:27:14.692Z,8.77
2023-02-19T08:29:42.035Z,8.93
2023-02-19T08:32:09.355Z,9.05
2023-02-19T08:34:37.218Z,8.96
2023-02-19T08:37:04.463Z,8.97
2023-02-19T08:39:32.485Z,9.21
2023-02-19T08:41:59.856Z,9.25
2023-02-19T08:44:27.207Z,9.35
2023-02-19T08:46:54.523Z,9.51
2023-02-19T08:49:21.872Z,9.53
2023-02-19T08:51:49.118Z,9.61
2023-02-19T08:54:16.486Z,9.80
2023-02-19T08:56:43.781Z,9.69
2023-02-19T08:59:11.097Z,9.66
2023-02-19T09:01:38.389Z,9.51
2023-02-19T09:04:05.830Z,9.65
2023-02-19T09:06:33.134Z,9.66
2023-02-19T09:09:00.423Z,9.83
2023-02-19T09:11:27.803Z,10.09
2023-02-19T09:13:56.029Z,9.97
2023-02-19T09:16:23.347Z,9.99
2023-02-19T09:18:50.861Z,9.78
2023-02-19T09:21:18.182Z,9.97
2023-02-19T09:23:45.553Z,10.51
2023-02-19T09:26:14.119Z,10.85
2023-02-19T09:28:42.068Z,11.12
2023-02-19T09:31:14.091Z,11.30
2023-02-19T09:33:44.653Z,11.56
2023-02-19T09:36:14.760Z,11.58
2023-02-19T09:38:42.368Z,11.77
2023-02-19T09:41:27.907Z,11.99
2023-02-19T09:43:55.553Z,11.91
2023-02-19T09:46:35.164Z,12.14
2023-02-19T09:49:07.721Z,12.09
2023-02-19T09:51:35.382Z,12.29
2023-02-19T09:54:02.652Z,12.70
2023-02-19T09:56:30.001Z,12.94
2023-02-19T09:58:58.183Z,13.10
2023-02-19T10:01:27.062Z,13.22
2023-02-19T10:03:54.313Z,13.21
2023-02-19T10:06:23.594Z,13.38
2023-02-19T10:08:52.867Z,13.74
2023-02-19T10:11:20.309Z,13.38
2023-02-19T10:14:09.565Z,13.48
2023-02-19T10:16:40.796Z,12.66
2023-02-19T10:19:12.162Z,12.95
2023-02-19T10:21:39.675Z,13.14
2023-02-19T10:24:07.097Z,13.70
2023-02-19T10:26:37.624Z,13.91
2023-02-19T10:29:05.312Z,13.82
2023-02-19T10:31:33.289Z,13.83
2023-02-19T10:34:02.172Z,13.96
2023-02-19T10:36:42.614Z,14.31
2023-02-19T10:39:22.178Z,14.41
2023-02-19T10:41:50.731Z,14.68
2023-02-19T10:44:24.862Z,14.73
2023-02-19T10:46:52.881Z,14.78
2023-02-19T10:49:32.742Z,15.07
2023-02-19T10:52:02.677Z,15.09
2023-02-19T10:54:33.143Z,15.20
2023-02-19T10:57:15.733Z,15.20
2023-02-19T10:59:53.721Z,15.36
2023-02-19T11:02:21.641Z,15.44
2023-02-19T11:05:17.066Z,15.65
2023-02-19T11:07:45.392Z,16.06
2023-02-19T11:10:44.475Z,16.46
2023-02-19T11:13:24.685Z,16.84
2023-02-19T11:15:53.433Z,16.94
2023-02-19T11:18:33.397Z,16.55
2023-02-19T11:21:05.149Z,16.42
2023-02-19T11:23:37.327Z,16.78
2023-02-19T11:26:15.604Z,17.15
2023-02-19T11:28:42.960Z,17.28
2023-02-19T11:31:19.510Z,17.18
2023-02-19T11:33:56.866Z,16.94
2023-02-19T11:36:34.130Z,16.94
2023-02-19T11:39:16.711Z,17.31
2023-02-19T11:42:29.575Z,17.34
2023-02-19T11:45:18.939Z,17.03
2023-02-19T11:47:54.703Z,16.76
2023-02-19T11:50:32.630Z,16.78
2023-02-19T11:53:02.918Z,16.89
2023-02-19T11:56:07.719Z,16.64
2023-02-19T11:59:16.733Z,16.45
2023-02-19T12:01:59.002Z,16.30
2023-02-19T12:04:41.578Z,16.15
2023-02-19T12:07:37.625Z,16.10
2023-02-19T12:10:17.300Z,15.94
2023-02-19T12:12:47.598Z,15.46
2023-02-19T12:15:27.162Z,15.10
2023-02-19T12:18:23.631Z,14.73
2023-02-19T12:21:24.963Z,14.51
2023-02-19T12:24:43.118Z,14.44
2023-02-19T12:27:41.316Z,14.37
2023-02-19T12:30:33.730Z,14.88
2023-02-19T12:33:18.514Z,15.03
2023-02-19T12:36:04.103Z,15.20
2023-02-19T12:38:37.210Z,15.17
2023-02-19T12:41:13.214Z,15.11
2023-02-19T12:43:42.050Z,15.19
2023-02-19T12:46:14.081Z,15.34
2023-02-19T12:49:02.650Z,15.81
2023-02-19T12:51:51.014Z,16.12
2023-02-19T12:54:27.216Z,16.12
2023-02-19T12:57:09.155Z,16.10
2023-02-19T12:59:39.544Z,16.40
2023-02-19T13:02:13.027Z,16.19
2023-02-19T13:04:54.801Z,16.42
2023-02-19T13:07:40.165Z,16.88
2023-02-19T13:10:22.640Z,17.00
2023-02-19T13:12:50.020Z,16.98
2023-02-19T13:15:35.895Z,16.67
2023-02-19T13:18:03.914Z,16.70
2023-02-19T13:20:35.748Z,16.87
2023-02-19T13:23:55.046Z,16.95
2023-02-19T13:26:25.442Z,17.04
2023-02-19T13:29:31.327Z,16.88
2023-02-19T13:32:01.374Z,16.83
2023-02-19T13:34:44.662Z,16.78
2023-02-19T13:37:12.017Z,16.84
2023-02-19T13:39:48.742Z,16.73
2023-02-19T13:42:27.319Z,16.60
2023-02-19T13:44:57.923Z,16.55
2023-02-19T13:47:54.037Z,16.36
2023-02-19T13:50:32.210Z,16.25
2023-02-19T13:53:08.257Z,16.27
2023-02-19T13:55:50.941Z,16.09
2023-02-19T13:58:33.825Z,16.04
2023-02-19T14:01:05.327Z,16.13
2023-02-19T14:03:55.443Z,16.10
2023-02-19T14:06:22.890Z,16.10
2023-02-19T14:08:56.785Z,16.09
2023-02-19T14:11:42.503Z,16.08
2023-02-19T14:14:28.674Z,16.12
2023-02-19T14:17:01.352Z,16.13
2023-02-19T14:19:52.887Z,16.22
2023-02-19T14:22:47.642Z,16.27
2023-02-19T14:25:27.116Z,16.23
2023-02-19T14:27:55.535Z,16.30
2023-02-19T14:30:22.970Z,16.20
2023-02-19T14:32:54.618Z,16.32
2023-02-19T14:35:29.335Z,16.22
2023-02-19T14:37:56.894Z,16.19
2023-02-19T14:40:27.836Z,16.06
2023-02-19T14:42:57.312Z,16.05
2023-02-19T14:45:24.895Z,16.22
2023-02-19T14:47:52.102Z,16.27
2023-02-19T14:50:30.615Z,16.32
2023-02-19T14:53:03.244Z,16.36
2023-02-19T14:55:32.788Z,16.33
2023-02-19T14:58:01.262Z,16.22
2023-02-19T15:00:34.684Z,16.25
2023-02-19T15:03:02.793Z,16.23
2023-02-19T15:05:31.690Z,16.25
2023-02-19T15:08:01.223Z,16.32
2023-02-19T15:10:29.583Z,16.29
2023-02-19T15:12:59.347Z,16.25
2023-02-19T15:15:29.265Z,16.23
2023-02-19T15:17:57.286Z,16.27
2023-02-19T15:20:25.868Z,16.26
2023-02-19T15:22:53.762Z,16.25
2023-02-19T15:25:22.674Z,16.05
2023-02-19T15:27:50.337Z,16.06
2023-02-19T15:30:24.847Z,16.02
2023-02-19T15:32:58.739Z,15.92
2023-02-19T15:35:29.674Z,15.78
2023-02-19T15:37:57.154Z,15.69
2023-02-19T15:40:30.302Z,15.62
2023-02-19T15:42:57.973Z,15.58
2023-02-19T15:45:29.664Z,15.44
2023-02-19T15:48:04.855Z,15.40
2023-02-19T15:50:33.876Z,15.34
2023-02-19T15:53:17.337Z,15.22
2023-02-19T15:56:03.001Z,15.11
2023-02-19T15:58:31.613Z,15.03
2023-02-19T16:01:14.921Z,15.00
2023-02-19T16:03:42.350Z,14.99
2023-02-19T16:06:15.136Z,14.75
2023-02-19T16:08:43.720Z,14.55
2023-02-19T16:11:23.131Z,14.58
2023-02-19T16:13:51.298Z,14.55
2023-02-19T16:16:31.518Z,14.24
2023-02-19T16:18:58.865Z,14.11
2023-02-19T16:21:26.598Z,13.93
2023-02-19T16:24:01.638Z,13.86
2023-02-19T16:26:28.982Z,13.74
2023-02-19T16:28:56.202Z,13.51
2023-02-19T16:31:23.773Z,13.32
2023-02-19T16:33:51.185Z,13.29
2023-02-19T16:36:37.314Z,13.22
2023-02-19T16:39:07.663Z,13.08
2023-02-19T16:41:41.085Z,13.07
2023-02-19T16:44:46.655Z,13.10
2023-02-19T16:47:24.767Z,13.00
2023-02-19T16:49:52.110Z,12.91
2023-02-19T16:52:19.431Z,12.85
2023-02-19T16:54:47.978Z,12.72
2023-02-19T16:57:15.370Z,12.83
2023-02-19T16:59:42.802Z,13.07
2023-02-19T17:02:14.699Z,13.19
2023-02-19T17:04:42.064Z,13.35
2023-02-19T17:07:14.711Z,13.24
2023-02-19T17:09:42.189Z,13.12
2023-02-19T17:12:13.494Z,13.11
2023-02-19T17:14:41.022Z,13.04
2023-02-19T17:17:08.517Z,12.97
2023-02-19T17:19:35.979Z,12.83
2023-02-19T17:22:04.016Z,12.85
2023-02-19T17:24:31.920Z,12.88
2023-02-19T17:26:59.230Z,12.91
2023-02-19T17:29:28.569Z,12.72
2023-02-19T17:31:55.935Z,12.57
2023-02-19T17:34:23.352Z,12.46
2023-02-19T17:36:52.048Z,12.53
2023-02-19T17:39:19.585Z,12.50
2023-02-19T17:41:46.897Z,12.46
2023-02-19T17:44:14.290Z,12.53
2023-02-19T17:46:41.657Z,12.43
2023-02-19T17:49:10.905Z,12.32
2023-02-19T17:51:38.263Z,12.37
2023-02-19T17:54:08.242Z,12.28
2023-02-19T17:56:36.235Z,12.35
2023-02-19T17:59:03.622Z,12.29
2023-02-19T18:01:30.937Z,12.21
2023-02-19T18:03:58.323Z,12.15
2023-02-19T18:06:25.732Z,12.15
2023-02-19T18:08:53.292Z,12.19
2023-02-19T18:11:22.181Z,12.16
2023-02-19T18:13:50.621Z,12.08
2023-02-19T18:16:18.194Z,12.01
2023-02-19T18:18:45.520Z,12.04
2023-02-19T18:21:13.561Z,12.18
2023-02-19T18:23:41.165Z,11.95
2023-02-19T18:26:10.430Z,11.68
2023-02-19T18:28:37.932Z,11.51
2023-02-19T18:31:05.461Z,11.09
2023-02-19T18:33:33.654Z,10.85
2023-02-19T18:36:01.219Z,10.64
2023-02-19T18:38:28.672Z,10.40
2023-02-19T18:40:58.626Z,10.40
2023-02-19T18:43:26.153Z,10.41
2023-02-19T18:45:53.575Z,10.34
2023-02-19T18:48:20.909Z,10.34
2023-02-19T18:50:48.246Z,10.16
2023-02-19T18:53:15.711Z,10.20
2023-02-19T18:55:43.087Z,10.18
2023-02-19T18:58:10.364Z,10.16
2023-02-19T19:00:37.662Z,10.09
2023-02-19T19:03:05.205Z,10.11
2023-02-19T19:05:32.626Z,10.11
2023-02-19T19:08:01.863Z,9.96
2023-02-19T19:10:29.979Z,9.80
2023-02-19T19:12:57.827Z,9.82
2023-02-19T19:15:25.489Z,9.79
2023-02-19T19:17:52.816Z,9.59
2023-02-19T19:20:21.151Z,9.58
2023-02-19T19:22:52.332Z,9.55
2023-02-19T19:25:20.420Z,9.55
2023-02-19T19:27:47.770Z,9.53
2023-02-19T19:30:15.242Z,9.52
2023-02-19T19:32:42.592Z,9.52
2023-02-19T19:35:10.129Z,9.45
2023-02-19T19:37:37.385Z,9.41
2023-02-19T19:40:05.444Z,9.34
2023-02-19T19:42:32.755Z,9.28
2023-02-19T19:45:00.127Z,9.31
2023-02-19T19:47:27.501Z,9.27
2023-02-19T19:49:54.965Z,9.31
2023-02-19T19:52:22.236Z,9.22
2023-02-19T19:54:54.080Z,9.18
2023-02-19T19:57:21.499Z,9.10
2023-02-19T19:59:51.159Z,9.04
2023-02-19T20:02:18.795Z,9.01
2023-02-19T20:04:46.095Z,9.01
2023-02-19T20:07:13.398Z,8.96
2023-02-19T20:09:40.640Z,9.03
2023-02-19T20:12:08.211Z,9.00
2023-02-19T20:14:35.532Z,9.01
2023-02-19T20:17:02.907Z,9.08
2023-02-19T20:19:30.329Z,9.12
2023-02-19T20:21:57.689Z,9.10
2023-02-19T20:24:26.232Z,9.01
2023-02-19T20:26:53.896Z,9.05
2023-02-19T20:29:21.150Z,9.07
2023-02-19T20:31:49.421Z,8.94
2023-02-19T20:34:16.960Z,8.99
2023-02-19T20:36:45.175Z,8.94
2023-02-19T20:39:12.454Z,9.01
2023-02-19T20:41:39.861Z,9.01
2023-02-19T20:44:07.176Z,8.97
2023-02-19T20:46:40.966Z,8.97
2023-02-19T20:49:08.325Z,9.00
2023-02-19T20:51:50.148Z,8.90
2023-02-19T20:54:18.192Z,8.77
2023-02-19T20:56:49.735Z,8.80
2023-02-19T20:59:17.321Z,8.76
2023-02-19T21:01:44.665Z,8.84
2023-02-19T21:04:12.171Z,8.93
2023-02-19T21:06:39.760Z,8.88
2023-02-19T21:09:07.161Z,9.04
2023-02-19T21:11:35.840Z,8.87
2023-02-19T21:14:03.195Z,8.88
2023-02-19T21:16:31.061Z,9.01
2023-02-19T21:18:58.639Z,9.07
2023-02-19T21:21:26.404Z,8.99
2023-02-19T21:23:54.537Z,8.93
2023-02-19T21:26:21.913Z,9.05
2023-02-19T21:28:52.607Z,8.96
2023-02-19T21:31:20.611Z,8.91
2023-02-19T21:33:47.912Z,9.07
2023-02-19T21:36:15.401Z,9.01
2023-02-19T21:38:42.616Z,9.03
2023-02-19T21:41:09.925Z,9.04
2023-02-19T21:43:37.225Z,9.03
2023-02-19T21:46:04.789Z,8.97
2023-02-19T21:48:32.054Z,8.94
2023-02-19T21:50:59.461Z,8.84
2023-02-19T21:53:26.682Z,8.93
2023-02-19T21:55:58.762Z,8.83
2023-02-19T21:58:26.615Z,8.69
2023-02-19T22:00:54.263Z,8.77
2023-02-19T22:03:21.736Z,8.73
2023-02-19T22:05:49.007Z,8.72
2023-02-19T22:08:17.565Z,8.66
2023-02-19T22:10:44.846Z,8.66
2023-02-19T22:13:12.276Z,8.60
2023-02-19T22:15:39.522Z,8.66
2023-02-19T22:18:06.911Z,8.43
2023-02-19T22:20:34.828Z,8.53
2023-02-19T22:23:02.138Z,8.56
2023-02-19T22:25:29.378Z,8.56
2023-02-19T22:27:57.252Z,8.56
2023-02-19T22:30:25.658Z,8.52
2023-02-19T22:32:53.060Z,8.57
2023-02-19T22:35:20.409Z,8.60
2023-02-19T22:37:47.783Z,8.59
2023-02-19T22:40:15.108Z,8.62
2023-02-19T22:42:42.563Z,8.56
2023-02-19T22:45:11.090Z,8.62
2023-02-19T22:47:40.051Z,8.66
2023-02-19T22:50:07.814Z,8.57
2023-02-19T22:52:35.147Z,8.49
2023-02-19T22:55:02.504Z,8.66
2023-02-19T22:57:29.845Z,8.69
2023-02-19T22:59:57.116Z,8.70
2023-02-19T23:02:24.424Z,8.41
2023-02-19T23:04:51.709Z,8.24
2023-02-19T23:07:18.993Z,7.90
2023-02-19T23:09:46.400Z,7.62
2023-02-19T23:12:13.799Z,7.53
2023-02-19T23:14:41.026Z,7.53
2023-02-19T23:17:08.317Z,7.50
2023-02-19T23:19:35.731Z,7.29
2023-02-19T23:22:03.310Z,7.23
2023-02-19T23:24:30.680Z,7.02
2023-02-19T23:26:59.739Z,6.85
2023-02-19T23:29:27.480Z,6.81
2023-02-19T23:31:54.979Z,6.81
2023-02-19T23:34:22.544Z,6.77
2023-02-19T23:36:50.118Z,6.60
2023-02-19T23:39:19.142Z,6.60
2023-02-19T23:41:47.863Z,6.50
2023-02-19T23:44:15.595Z,6.57
2023-02-19T23:46:43.076Z,6.51
2023-02-19T23:49:10.656Z,6.57
2023-02-19T23:51:38.118Z,6.57
2023-02-19T23:54:05.414Z,6.60
2023-02-19T23:56:32.814Z,6.48
2023-02-19T23:59:00.058Z,6.58
